sensor_id;sensor_type;location;lat;lon;timestamp;P1;durP1;ratioP1;P2;durP2;ratioP2
10939;SDS011;5522;42.696;23.494;2022-12-24T00:00:59;65.40;;;32.30;;
10939;SDS011;5522;42.696;23.494;2022-12-24T00:03:26;62.90;;;32.30;;
10939;SDS011;5522;42.696;23.494;2022-12-24T00:05:53;75.20;;;34.63;;
10939;SDS011;5522;42.696;23.494;2022-12-24T00:08:20;65.53;;;35.05;;
10939;SDS011;5522;42.696;23.494;2022-12-24T00:10:49;76.55;;;39.60;;
10939;SDS011;5522;42.696;23.494;2022-12-24T00:13:18;72.15;;;37.88;;
10939;SDS011;5522;42.696;23.494;2022-12-24T00:15:45;77.95;;;39.30;;
10939;SDS011;5522;42.696;23.494;2022-12-24T00:18:12;77.57;;;40.63;;
10939;SDS011;5522;42.696;23.494;2022-12-24T00:20:40;91.68;;;44.42;;
10939;SDS011;5522;42.696;23.494;2022-12-24T00:23:07;83.47;;;41.20;;
10939;SDS011;5522;42.696;23.494;2022-12-24T00:25:34;83.43;;;42.75;;
10939;SDS011;5522;42.696;23.494;2022-12-24T00:28:02;82.25;;;43.42;;
10939;SDS011;5522;42.696;23.494;2022-12-24T00:30:29;89.05;;;45.63;;
10939;SDS011;5522;42.696;23.494;2022-12-24T00:32:56;88.25;;;44.22;;
10939;SDS011;5522;42.696;23.494;2022-12-24T00:35:23;94.32;;;44.40;;
10939;SDS011;5522;42.696;23.494;2022-12-24T00:37:50;79.68;;;42.40;;
10939;SDS011;5522;42.696;23.494;2022-12-24T00:40:17;86.13;;;43.03;;
10939;SDS011;5522;42.696;23.494;2022-12-24T00:42:45;83.32;;;40.88;;
10939;SDS011;5522;42.696;23.494;2022-12-24T00:45:13;77.72;;;40.22;;
10939;SDS011;5522;42.696;23.494;2022-12-24T00:47:40;78.18;;;42.40;;
10939;SDS011;5522;42.696;23.494;2022-12-24T00:50:07;78.57;;;41.80;;
10939;SDS011;5522;42.696;23.494;2022-12-24T00:52:35;93.25;;;46.53;;
10939;SDS011;5522;42.696;23.494;2022-12-24T00:55:01;73.13;;;42.47;;
10939;SDS011;5522;42.696;23.494;2022-12-24T00:57:29;81.88;;;43.78;;
10939;SDS011;5522;42.696;23.494;2022-12-24T01:07:37;76.50;;;43.17;;
10939;SDS011;5522;42.696;23.494;2022-12-24T01:10:07;79.50;;;42.60;;
10939;SDS011;5522;42.696;23.494;2022-12-24T01:12:35;75.75;;;44.00;;
10939;SDS011;5522;42.696;23.494;2022-12-24T01:15:02;75.85;;;41.95;;
10939;SDS011;5522;42.696;23.494;2022-12-24T01:17:30;83.00;;;42.28;;
10939;SDS011;5522;42.696;23.494;2022-12-24T01:19:57;79.50;;;41.08;;
10939;SDS011;5522;42.696;23.494;2022-12-24T01:22:24;81.05;;;43.40;;
10939;SDS011;5522;42.696;23.494;2022-12-24T01:24:53;77.20;;;41.95;;
10939;SDS011;5522;42.696;23.494;2022-12-24T01:27:20;86.25;;;44.88;;
10939;SDS011;5522;42.696;23.494;2022-12-24T01:29:47;83.22;;;41.30;;
10939;SDS011;5522;42.696;23.494;2022-12-24T01:32:14;68.70;;;33.22;;
10939;SDS011;5522;42.696;23.494;2022-12-24T01:34:41;65.40;;;32.63;;
10939;SDS011;5522;42.696;23.494;2022-12-24T01:37:08;57.78;;;30.20;;
10939;SDS011;5522;42.696;23.494;2022-12-24T01:39:35;58.58;;;29.52;;
10939;SDS011;5522;42.696;23.494;2022-12-24T01:42:08;56.30;;;29.45;;
10939;SDS011;5522;42.696;23.494;2022-12-24T01:48:03;54.72;;;27.70;;
10939;SDS011;5522;42.696;23.494;2022-12-24T01:50:33;59.00;;;28.08;;
10939;SDS011;5522;42.696;23.494;2022-12-24T01:53:00;53.25;;;28.30;;
10939;SDS011;5522;42.696;23.494;2022-12-24T01:55:29;54.38;;;27.23;;
10939;SDS011;5522;42.696;23.494;2022-12-24T01:57:57;55.67;;;27.83;;
10939;SDS011;5522;42.696;23.494;2022-12-24T02:00:25;50.17;;;26.65;;
10939;SDS011;5522;42.696;23.494;2022-12-24T02:02:52;53.63;;;28.20;;
10939;SDS011;5522;42.696;23.494;2022-12-24T02:05:21;61.05;;;27.77;;
10939;SDS011;5522;42.696;23.494;2022-12-24T02:07:55;57.25;;;27.40;;
10939;SDS011;5522;42.696;23.494;2022-12-24T02:10:23;59.22;;;29.83;;
10939;SDS011;5522;42.696;23.494;2022-12-24T02:12:50;52.08;;;28.75;;
10939;SDS011;5522;42.696;23.494;2022-12-24T02:15:19;47.58;;;27.45;;
10939;SDS011;5522;42.696;23.494;2022-12-24T02:17:50;53.88;;;28.63;;
10939;SDS011;5522;42.696;23.494;2022-12-24T02:26:26;58.03;;;28.48;;
10939;SDS011;5522;42.696;23.494;2022-12-24T02:29:15;62.60;;;30.70;;
10939;SDS011;5522;42.696;23.494;2022-12-24T02:31:55;54.63;;;28.88;;
10939;SDS011;5522;42.696;23.494;2022-12-24T02:34:27;56.95;;;31.63;;
10939;SDS011;5522;42.696;23.494;2022-12-24T02:36:58;63.63;;;32.97;;
10939;SDS011;5522;42.696;23.494;2022-12-24T02:39:30;57.63;;;31.55;;
10939;SDS011;5522;42.696;23.494;2022-12-24T02:42:03;57.95;;;30.35;;
10939;SDS011;5522;42.696;23.494;2022-12-24T02:44:33;58.90;;;30.95;;
10939;SDS011;5522;42.696;23.494;2022-12-24T02:47:06;61.95;;;30.10;;
10939;SDS011;5522;42.696;23.494;2022-12-24T02:49:35;61.58;;;32.00;;
10939;SDS011;5522;42.696;23.494;2022-12-24T02:52:02;59.88;;;30.38;;
10939;SDS011;5522;42.696;23.494;2022-12-24T02:54:30;65.60;;;31.77;;
10939;SDS011;5522;42.696;23.494;2022-12-24T02:57:01;61.50;;;31.77;;
10939;SDS011;5522;42.696;23.494;2022-12-24T02:59:56;64.30;;;33.40;;
10939;SDS011;5522;42.696;23.494;2022-12-24T03:02:35;59.47;;;31.23;;
10939;SDS011;5522;42.696;23.494;2022-12-24T03:05:16;63.33;;;33.78;;
10939;SDS011;5522;42.696;23.494;2022-12-24T03:07:52;58.42;;;30.88;;
10939;SDS011;5522;42.696;23.494;2022-12-24T03:10:28;58.53;;;30.27;;
10939;SDS011;5522;42.696;23.494;2022-12-24T03:13:02;55.15;;;28.63;;
10939;SDS011;5522;42.696;23.494;2022-12-24T03:15:32;62.47;;;32.13;;
10939;SDS011;5522;42.696;23.494;2022-12-24T03:18:01;53.38;;;29.60;;
10939;SDS011;5522;42.696;23.494;2022-12-24T03:20:32;59.85;;;31.70;;
10939;SDS011;5522;42.696;23.494;2022-12-24T03:23:01;61.80;;;31.75;;
10939;SDS011;5522;42.696;23.494;2022-12-24T03:25:29;93.07;;;48.28;;
10939;SDS011;5522;42.696;23.494;2022-12-24T03:27:58;58.92;;;32.88;;
10939;SDS011;5522;42.696;23.494;2022-12-24T03:30:28;61.03;;;30.77;;
10939;SDS011;5522;42.696;23.494;2022-12-24T03:32:55;61.40;;;33.55;;
10939;SDS011;5522;42.696;23.494;2022-12-24T03:35:23;74.80;;;40.88;;
10939;SDS011;5522;42.696;23.494;2022-12-24T03:37:50;64.82;;;31.10;;
10939;SDS011;5522;42.696;23.494;2022-12-24T03:40:17;63.35;;;31.98;;
10939;SDS011;5522;42.696;23.494;2022-12-24T03:42:45;67.85;;;30.42;;
10939;SDS011;5522;42.696;23.494;2022-12-24T03:45:11;62.15;;;27.95;;
10939;SDS011;5522;42.696;23.494;2022-12-24T03:47:38;79.38;;;30.30;;
10939;SDS011;5522;42.696;23.494;2022-12-24T03:50:06;87.00;;;29.90;;
10939;SDS011;5522;42.696;23.494;2022-12-24T03:52:35;100.25;;;28.42;;
10939;SDS011;5522;42.696;23.494;2022-12-24T03:55:02;106.28;;;29.83;;
10939;SDS011;5522;42.696;23.494;2022-12-24T03:57:29;77.38;;;28.67;;
10939;SDS011;5522;42.696;23.494;2022-12-24T03:59:56;73.00;;;27.20;;
10939;SDS011;5522;42.696;23.494;2022-12-24T04:02:23;86.15;;;27.10;;
10939;SDS011;5522;42.696;23.494;2022-12-24T04:04:50;95.78;;;31.25;;
10939;SDS011;5522;42.696;23.494;2022-12-24T04:07:17;93.88;;;31.05;;
10939;SDS011;5522;42.696;23.494;2022-12-24T04:09:46;153.05;;;57.05;;
10939;SDS011;5522;42.696;23.494;2022-12-24T04:12:12;101.72;;;35.00;;
10939;SDS011;5522;42.696;23.494;2022-12-24T04:14:39;92.07;;;32.88;;
10939;SDS011;5522;42.696;23.494;2022-12-24T04:17:06;67.55;;;28.52;;
10939;SDS011;5522;42.696;23.494;2022-12-24T04:19:33;86.05;;;28.75;;
10939;SDS011;5522;42.696;23.494;2022-12-24T04:22:00;88.65;;;27.85;;
10939;SDS011;5522;42.696;23.494;2022-12-24T04:24:27;65.18;;;26.77;;
10939;SDS011;5522;42.696;23.494;2022-12-24T04:26:55;74.78;;;26.98;;
10939;SDS011;5522;42.696;23.494;2022-12-24T04:29:22;72.10;;;26.58;;
10939;SDS011;5522;42.696;23.494;2022-12-24T04:31:49;73.70;;;26.58;;
10939;SDS011;5522;42.696;23.494;2022-12-24T04:34:16;67.40;;;27.05;;
10939;SDS011;5522;42.696;23.494;2022-12-24T04:36:43;83.13;;;33.13;;
10939;SDS011;5522;42.696;23.494;2022-12-24T04:39:10;119.75;;;40.00;;
10939;SDS011;5522;42.696;23.494;2022-12-24T04:41:37;97.45;;;34.58;;
10939;SDS011;5522;42.696;23.494;2022-12-24T04:44:05;77.18;;;26.05;;
10939;SDS011;5522;42.696;23.494;2022-12-24T04:46:32;91.13;;;25.70;;
10939;SDS011;5522;42.696;23.494;2022-12-24T04:48:59;83.50;;;25.40;;
10939;SDS011;5522;42.696;23.494;2022-12-24T04:51:26;63.00;;;23.45;;
10939;SDS011;5522;42.696;23.494;2022-12-24T04:53:54;64.30;;;24.42;;
10939;SDS011;5522;42.696;23.494;2022-12-24T04:56:22;71.82;;;24.30;;
10939;SDS011;5522;42.696;23.494;2022-12-24T04:58:51;101.15;;;27.15;;
10939;SDS011;5522;42.696;23.494;2022-12-24T05:01:20;79.80;;;26.27;;
10939;SDS011;5522;42.696;23.494;2022-12-24T05:03:48;98.00;;;28.27;;
10939;SDS011;5522;42.696;23.494;2022-12-24T05:06:17;102.47;;;27.52;;
10939;SDS011;5522;42.696;23.494;2022-12-24T05:08:45;76.93;;;27.90;;
10939;SDS011;5522;42.696;23.494;2022-12-24T05:11:13;107.22;;;38.08;;
10939;SDS011;5522;42.696;23.494;2022-12-24T05:13:40;137.52;;;47.40;;
10939;SDS011;5522;42.696;23.494;2022-12-24T05:16:07;132.13;;;46.60;;
10939;SDS011;5522;42.696;23.494;2022-12-24T05:18:36;124.60;;;43.08;;
10939;SDS011;5522;42.696;23.494;2022-12-24T05:21:06;135.38;;;48.17;;
10939;SDS011;5522;42.696;23.494;2022-12-24T05:23:34;136.57;;;50.08;;
10939;SDS011;5522;42.696;23.494;2022-12-24T05:26:22;105.32;;;43.13;;
10939;SDS011;5522;42.696;23.494;2022-12-24T05:28:54;146.77;;;47.65;;
10939;SDS011;5522;42.696;23.494;2022-12-24T05:31:22;195.48;;;57.28;;
10939;SDS011;5522;42.696;23.494;2022-12-24T05:33:52;156.25;;;51.22;;
10939;SDS011;5522;42.696;23.494;2022-12-24T05:36:20;125.45;;;44.72;;
10939;SDS011;5522;42.696;23.494;2022-12-24T05:38:47;111.68;;;41.00;;
10939;SDS011;5522;42.696;23.494;2022-12-24T05:41:16;112.70;;;39.42;;
10939;SDS011;5522;42.696;23.494;2022-12-24T05:43:43;127.82;;;49.78;;
10939;SDS011;5522;42.696;23.494;2022-12-24T05:46:11;120.25;;;56.83;;
10939;SDS011;5522;42.696;23.494;2022-12-24T05:48:39;172.52;;;72.30;;
10939;SDS011;5522;42.696;23.494;2022-12-24T05:51:08;122.13;;;53.92;;
10939;SDS011;5522;42.696;23.494;2022-12-24T05:53:36;103.70;;;44.00;;
10939;SDS011;5522;42.696;23.494;2022-12-24T05:56:04;113.05;;;44.10;;
10939;SDS011;5522;42.696;23.494;2022-12-24T05:58:32;122.57;;;49.50;;
10939;SDS011;5522;42.696;23.494;2022-12-24T06:01:00;88.82;;;31.08;;
10939;SDS011;5522;42.696;23.494;2022-12-24T06:03:31;80.28;;;31.92;;
10939;SDS011;5522;42.696;23.494;2022-12-24T06:06:00;72.50;;;28.65;;
10939;SDS011;5522;42.696;23.494;2022-12-24T06:08:29;88.85;;;28.67;;
10939;SDS011;5522;42.696;23.494;2022-12-24T06:10:57;81.38;;;32.13;;
10939;SDS011;5522;42.696;23.494;2022-12-24T06:13:26;119.85;;;34.95;;
10939;SDS011;5522;42.696;23.494;2022-12-24T06:15:54;109.45;;;46.22;;
10939;SDS011;5522;42.696;23.494;2022-12-24T06:18:22;85.88;;;33.55;;
10939;SDS011;5522;42.696;23.494;2022-12-24T06:20:49;99.88;;;31.92;;
10939;SDS011;5522;42.696;23.494;2022-12-24T06:23:17;86.20;;;26.05;;
10939;SDS011;5522;42.696;23.494;2022-12-24T06:25:46;77.13;;;26.75;;
10939;SDS011;5522;42.696;23.494;2022-12-24T06:28:13;69.65;;;27.35;;
10939;SDS011;5522;42.696;23.494;2022-12-24T06:30:40;66.75;;;27.55;;
10939;SDS011;5522;42.696;23.494;2022-12-24T06:33:11;63.25;;;24.05;;
10939;SDS011;5522;42.696;23.494;2022-12-24T06:35:38;70.57;;;30.08;;
10939;SDS011;5522;42.696;23.494;2022-12-24T06:38:05;100.22;;;33.53;;
10939;SDS011;5522;42.696;23.494;2022-12-24T06:40:32;105.50;;;30.75;;
10939;SDS011;5522;42.696;23.494;2022-12-24T06:43:00;174.43;;;32.05;;
10939;SDS011;5522;42.696;23.494;2022-12-24T06:45:27;114.15;;;26.48;;
10939;SDS011;5522;42.696;23.494;2022-12-24T06:47:54;74.15;;;22.73;;
10939;SDS011;5522;42.696;23.494;2022-12-24T06:50:22;96.32;;;26.17;;
10939;SDS011;5522;42.696;23.494;2022-12-24T06:52:49;73.25;;;26.80;;
10939;SDS011;5522;42.696;23.494;2022-12-24T06:55:15;67.90;;;24.02;;
10939;SDS011;5522;42.696;23.494;2022-12-24T06:57:42;85.30;;;25.88;;
10939;SDS011;5522;42.696;23.494;2022-12-24T07:00:11;75.97;;;28.58;;
10939;SDS011;5522;42.696;23.494;2022-12-24T07:02:39;86.60;;;31.48;;
10939;SDS011;5522;42.696;23.494;2022-12-24T07:05:06;74.82;;;29.88;;
10939;SDS011;5522;42.696;23.494;2022-12-24T07:07:35;96.28;;;33.80;;
10939;SDS011;5522;42.696;23.494;2022-12-24T07:10:03;100.70;;;32.10;;
10939;SDS011;5522;42.696;23.494;2022-12-24T07:12:31;98.32;;;35.33;;
10939;SDS011;5522;42.696;23.494;2022-12-24T07:14:58;72.97;;;29.63;;
10939;SDS011;5522;42.696;23.494;2022-12-24T07:17:27;89.38;;;31.98;;
10939;SDS011;5522;42.696;23.494;2022-12-24T07:19:54;89.03;;;30.17;;
10939;SDS011;5522;42.696;23.494;2022-12-24T07:22:21;89.07;;;30.58;;
10939;SDS011;5522;42.696;23.494;2022-12-24T07:24:48;74.30;;;30.33;;
10939;SDS011;5522;42.696;23.494;2022-12-24T07:27:14;66.22;;;28.58;;
10939;SDS011;5522;42.696;23.494;2022-12-24T07:29:41;70.80;;;27.55;;
10939;SDS011;5522;42.696;23.494;2022-12-24T07:32:08;84.30;;;29.02;;
10939;SDS011;5522;42.696;23.494;2022-12-24T07:34:37;89.70;;;28.17;;
10939;SDS011;5522;42.696;23.494;2022-12-24T07:37:04;82.63;;;34.63;;
10939;SDS011;5522;42.696;23.494;2022-12-24T07:39:33;57.85;;;26.73;;
10939;SDS011;5522;42.696;23.494;2022-12-24T07:42:02;62.67;;;26.73;;
10939;SDS011;5522;42.696;23.494;2022-12-24T07:44:32;55.80;;;26.17;;
10939;SDS011;5522;42.696;23.494;2022-12-24T07:46:59;55.65;;;25.90;;
10939;SDS011;5522;42.696;23.494;2022-12-24T07:49:26;49.88;;;25.48;;
10939;SDS011;5522;42.696;23.494;2022-12-24T07:51:55;54.90;;;29.10;;
10939;SDS011;5522;42.696;23.494;2022-12-24T07:54:22;55.28;;;29.38;;
10939;SDS011;5522;42.696;23.494;2022-12-24T07:56:49;62.70;;;30.88;;
10939;SDS011;5522;42.696;23.494;2022-12-24T07:59:17;54.72;;;28.42;;
10939;SDS011;5522;42.696;23.494;2022-12-24T08:01:46;52.80;;;28.10;;
10939;SDS011;5522;42.696;23.494;2022-12-24T08:04:13;73.47;;;40.78;;
10939;SDS011;5522;42.696;23.494;2022-12-24T08:06:40;67.82;;;36.70;;
10939;SDS011;5522;42.696;23.494;2022-12-24T08:09:09;49.88;;;29.95;;
10939;SDS011;5522;42.696;23.494;2022-12-24T08:11:39;56.65;;;31.08;;
10939;SDS011;5522;42.696;23.494;2022-12-24T08:14:05;54.60;;;31.25;;
10939;SDS011;5522;42.696;23.494;2022-12-24T08:16:33;44.17;;;27.23;;
10939;SDS011;5522;42.696;23.494;2022-12-24T08:19:01;60.35;;;34.60;;
10939;SDS011;5522;42.696;23.494;2022-12-24T08:21:28;43.70;;;24.42;;
10939;SDS011;5522;42.696;23.494;2022-12-24T08:23:55;48.72;;;26.58;;
10939;SDS011;5522;42.696;23.494;2022-12-24T08:26:24;47.35;;;25.55;;
10939;SDS011;5522;42.696;23.494;2022-12-24T08:28:52;56.75;;;31.73;;
10939;SDS011;5522;42.696;23.494;2022-12-24T08:31:19;43.10;;;25.48;;
10939;SDS011;5522;42.696;23.494;2022-12-24T08:33:47;41.28;;;25.40;;
10939;SDS011;5522;42.696;23.494;2022-12-24T08:36:13;45.95;;;26.40;;
10939;SDS011;5522;42.696;23.494;2022-12-24T08:38:40;45.75;;;24.20;;
10939;SDS011;5522;42.696;23.494;2022-12-24T08:41:07;40.10;;;22.65;;
10939;SDS011;5522;42.696;23.494;2022-12-24T08:43:35;48.65;;;25.05;;
10939;SDS011;5522;42.696;23.494;2022-12-24T08:46:03;74.82;;;32.88;;
10939;SDS011;5522;42.696;23.494;2022-12-24T08:48:31;64.18;;;30.35;;
10939;SDS011;5522;42.696;23.494;2022-12-24T08:50:59;43.97;;;24.98;;
10939;SDS011;5522;42.696;23.494;2022-12-24T08:53:26;38.63;;;21.40;;
10939;SDS011;5522;42.696;23.494;2022-12-24T08:55:59;41.92;;;22.83;;
10939;SDS011;5522;42.696;23.494;2022-12-24T08:58:27;36.10;;;20.88;;
10939;SDS011;5522;42.696;23.494;2022-12-24T09:00:56;35.47;;;21.25;;
10939;SDS011;5522;42.696;23.494;2022-12-24T09:03:23;35.10;;;21.42;;
10939;SDS011;5522;42.696;23.494;2022-12-24T09:05:50;38.45;;;22.63;;
10939;SDS011;5522;42.696;23.494;2022-12-24T09:08:18;35.28;;;20.45;;
10939;SDS011;5522;42.696;23.494;2022-12-24T09:10:45;35.72;;;20.60;;
10939;SDS011;5522;42.696;23.494;2022-12-24T09:13:12;31.33;;;20.30;;
10939;SDS011;5522;42.696;23.494;2022-12-24T09:15:39;37.42;;;23.35;;
10939;SDS011;5522;42.696;23.494;2022-12-24T09:18:07;38.33;;;22.85;;
10939;SDS011;5522;42.696;23.494;2022-12-24T09:20:34;35.45;;;22.17;;
10939;SDS011;5522;42.696;23.494;2022-12-24T09:23:01;39.20;;;23.25;;
10939;SDS011;5522;42.696;23.494;2022-12-24T09:25:28;41.75;;;24.20;;
10939;SDS011;5522;42.696;23.494;2022-12-24T09:27:55;39.03;;;23.85;;
10939;SDS011;5522;42.696;23.494;2022-12-24T09:30:22;40.28;;;23.70;;
10939;SDS011;5522;42.696;23.494;2022-12-24T09:32:49;43.83;;;25.83;;
10939;SDS011;5522;42.696;23.494;2022-12-24T09:35:18;48.83;;;29.00;;
10939;SDS011;5522;42.696;23.494;2022-12-24T09:37:45;39.83;;;26.23;;
10939;SDS011;5522;42.696;23.494;2022-12-24T09:40:15;39.20;;;24.80;;
10939;SDS011;5522;42.696;23.494;2022-12-24T09:42:50;44.88;;;27.30;;
10939;SDS011;5522;42.696;23.494;2022-12-24T09:45:19;47.03;;;26.65;;
10939;SDS011;5522;42.696;23.494;2022-12-24T09:47:50;45.83;;;28.13;;
10939;SDS011;5522;42.696;23.494;2022-12-24T09:50:27;48.25;;;28.35;;
10939;SDS011;5522;42.696;23.494;2022-12-24T09:52:59;45.95;;;28.63;;
10939;SDS011;5522;42.696;23.494;2022-12-24T09:55:31;63.13;;;31.73;;
10939;SDS011;5522;42.696;23.494;2022-12-24T09:58:01;56.75;;;32.65;;
10939;SDS011;5522;42.696;23.494;2022-12-24T10:00:32;83.10;;;45.00;;
10939;SDS011;5522;42.696;23.494;2022-12-24T10:03:07;66.85;;;39.20;;
10939;SDS011;5522;42.696;23.494;2022-12-24T10:05:40;52.17;;;31.95;;
10939;SDS011;5522;42.696;23.494;2022-12-24T10:08:16;49.08;;;27.58;;
10939;SDS011;5522;42.696;23.494;2022-12-24T10:10:54;54.22;;;32.47;;
10939;SDS011;5522;42.696;23.494;2022-12-24T10:13:30;63.33;;;34.63;;
10939;SDS011;5522;42.696;23.494;2022-12-24T10:16:11;60.95;;;34.75;;
10939;SDS011;5522;42.696;23.494;2022-12-24T10:18:46;53.65;;;32.15;;
10939;SDS011;5522;42.696;23.494;2022-12-24T10:21:22;50.58;;;29.90;;
10939;SDS011;5522;42.696;23.494;2022-12-24T10:23:59;53.92;;;30.20;;
10939;SDS011;5522;42.696;23.494;2022-12-24T10:26:33;43.90;;;25.88;;
10939;SDS011;5522;42.696;23.494;2022-12-24T10:29:05;46.95;;;27.52;;
10939;SDS011;5522;42.696;23.494;2022-12-24T10:31:43;58.97;;;33.30;;
10939;SDS011;5522;42.696;23.494;2022-12-24T10:34:16;48.72;;;28.25;;
10939;SDS011;5522;42.696;23.494;2022-12-24T10:36:49;46.65;;;29.25;;
10939;SDS011;5522;42.696;23.494;2022-12-24T10:39:17;48.17;;;28.15;;
10939;SDS011;5522;42.696;23.494;2022-12-24T10:41:45;48.65;;;30.42;;
10939;SDS011;5522;42.696;23.494;2022-12-24T10:44:15;47.03;;;29.52;;
10939;SDS011;5522;42.696;23.494;2022-12-24T10:46:46;42.45;;;26.33;;
10939;SDS011;5522;42.696;23.494;2022-12-24T10:49:14;42.03;;;27.88;;
10939;SDS011;5522;42.696;23.494;2022-12-24T10:51:44;46.10;;;25.80;;
10939;SDS011;5522;42.696;23.494;2022-12-24T10:54:17;41.95;;;25.23;;
10939;SDS011;5522;42.696;23.494;2022-12-24T10:56:46;38.08;;;23.52;;
10939;SDS011;5522;42.696;23.494;2022-12-24T10:59:23;37.90;;;22.13;;
10939;SDS011;5522;42.696;23.494;2022-12-24T11:01:53;29.55;;;19.02;;
10939;SDS011;5522;42.696;23.494;2022-12-24T11:04:22;30.05;;;19.45;;
10939;SDS011;5522;42.696;23.494;2022-12-24T11:06:51;35.47;;;19.15;;
10939;SDS011;5522;42.696;23.494;2022-12-24T11:09:22;29.08;;;18.35;;
10939;SDS011;5522;42.696;23.494;2022-12-24T11:11:50;29.70;;;17.83;;
10939;SDS011;5522;42.696;23.494;2022-12-24T11:14:18;27.10;;;17.33;;
10939;SDS011;5522;42.696;23.494;2022-12-24T11:16:51;23.15;;;14.93;;
10939;SDS011;5522;42.696;23.494;2022-12-24T11:19:21;24.52;;;15.68;;
10939;SDS011;5522;42.696;23.494;2022-12-24T11:21:59;26.05;;;15.98;;
10939;SDS011;5522;42.696;23.494;2022-12-24T11:24:30;30.67;;;19.92;;
10939;SDS011;5522;42.696;23.494;2022-12-24T11:38:38;29.33;;;17.95;;
10939;SDS011;5522;42.696;23.494;2022-12-24T11:41:07;30.80;;;18.02;;
10939;SDS011;5522;42.696;23.494;2022-12-24T11:43:38;27.25;;;17.15;;
10939;SDS011;5522;42.696;23.494;2022-12-24T11:46:17;33.08;;;19.00;;
10939;SDS011;5522;42.696;23.494;2022-12-24T11:48:46;46.20;;;25.33;;
10939;SDS011;5522;42.696;23.494;2022-12-24T11:51:23;29.77;;;19.33;;
10939;SDS011;5522;42.696;23.494;2022-12-24T11:53:55;30.10;;;19.73;;
10939;SDS011;5522;42.696;23.494;2022-12-24T11:56:31;32.50;;;19.08;;
10939;SDS011;5522;42.696;23.494;2022-12-24T11:59:04;31.85;;;19.90;;
10939;SDS011;5522;42.696;23.494;2022-12-24T12:01:40;33.60;;;21.48;;
10939;SDS011;5522;42.696;23.494;2022-12-24T12:04:14;32.70;;;21.67;;
10939;SDS011;5522;42.696;23.494;2022-12-24T12:06:44;33.38;;;22.05;;
10939;SDS011;5522;42.696;23.494;2022-12-24T12:09:16;40.22;;;30.98;;
10939;SDS011;5522;42.696;23.494;2022-12-24T12:11:49;39.55;;;26.35;;
10939;SDS011;5522;42.696;23.494;2022-12-24T12:14:24;29.85;;;19.45;;
10939;SDS011;5522;42.696;23.494;2022-12-24T12:16:57;27.52;;;18.17;;
10939;SDS011;5522;42.696;23.494;2022-12-24T12:19:34;26.60;;;16.58;;
10939;SDS011;5522;42.696;23.494;2022-12-24T12:22:09;22.45;;;15.88;;
10939;SDS011;5522;42.696;23.494;2022-12-24T12:24:46;24.90;;;17.20;;
10939;SDS011;5522;42.696;23.494;2022-12-24T12:27:19;29.63;;;18.48;;
10939;SDS011;5522;42.696;23.494;2022-12-24T12:29:54;28.50;;;18.13;;
10939;SDS011;5522;42.696;23.494;2022-12-24T12:32:27;27.60;;;18.48;;
10939;SDS011;5522;42.696;23.494;2022-12-24T12:35:08;34.15;;;21.25;;
10939;SDS011;5522;42.696;23.494;2022-12-24T12:37:43;42.17;;;26.88;;
10939;SDS011;5522;42.696;23.494;2022-12-24T12:40:15;45.63;;;27.48;;
10939;SDS011;5522;42.696;23.494;2022-12-24T12:42:48;35.67;;;21.42;;
10939;SDS011;5522;42.696;23.494;2022-12-24T12:45:29;35.13;;;20.20;;
10939;SDS011;5522;42.696;23.494;2022-12-24T12:50:57;32.30;;;19.52;;
10939;SDS011;5522;42.696;23.494;2022-12-24T12:53:35;32.10;;;19.92;;
10939;SDS011;5522;42.696;23.494;2022-12-24T12:56:24;35.70;;;22.25;;
10939;SDS011;5522;42.696;23.494;2022-12-24T12:58:58;37.00;;;22.60;;
10939;SDS011;5522;42.696;23.494;2022-12-24T13:01:33;37.40;;;24.48;;
10939;SDS011;5522;42.696;23.494;2022-12-24T13:07:13;40.38;;;23.65;;
10939;SDS011;5522;42.696;23.494;2022-12-24T13:13:12;40.78;;;24.92;;
10939;SDS011;5522;42.696;23.494;2022-12-24T13:16:02;42.22;;;21.75;;
10939;SDS011;5522;42.696;23.494;2022-12-24T13:18:48;37.88;;;22.00;;
10939;SDS011;5522;42.696;23.494;2022-12-24T13:21:25;31.40;;;20.77;;
10939;SDS011;5522;42.696;23.494;2022-12-24T13:24:03;41.17;;;23.20;;
10939;SDS011;5522;42.696;23.494;2022-12-24T13:26:33;34.72;;;21.85;;
10939;SDS011;5522;42.696;23.494;2022-12-24T13:34:55;37.08;;;24.15;;
10939;SDS011;5522;42.696;23.494;2022-12-24T13:37:31;31.90;;;21.55;;
10939;SDS011;5522;42.696;23.494;2022-12-24T13:40:01;31.70;;;20.33;;
10939;SDS011;5522;42.696;23.494;2022-12-24T13:42:48;29.52;;;20.30;;
10939;SDS011;5522;42.696;23.494;2022-12-24T13:48:25;35.30;;;21.92;;
10939;SDS011;5522;42.696;23.494;2022-12-24T13:51:15;31.83;;;20.20;;
10939;SDS011;5522;42.696;23.494;2022-12-24T13:53:46;32.20;;;20.35;;
10939;SDS011;5522;42.696;23.494;2022-12-24T13:56:20;35.47;;;21.45;;
10939;SDS011;5522;42.696;23.494;2022-12-24T13:58:52;38.80;;;21.77;;
10939;SDS011;5522;42.696;23.494;2022-12-24T14:01:31;41.88;;;24.90;;
10939;SDS011;5522;42.696;23.494;2022-12-24T14:04:01;41.53;;;25.98;;
10939;SDS011;5522;42.696;23.494;2022-12-24T14:06:33;40.45;;;25.67;;
10939;SDS011;5522;42.696;23.494;2022-12-24T14:09:05;39.40;;;23.50;;
10939;SDS011;5522;42.696;23.494;2022-12-24T14:14:37;43.13;;;25.98;;
10939;SDS011;5522;42.696;23.494;2022-12-24T14:17:12;36.55;;;23.77;;
10939;SDS011;5522;42.696;23.494;2022-12-24T14:19:46;45.35;;;24.88;;
10939;SDS011;5522;42.696;23.494;2022-12-24T14:22:22;34.17;;;22.85;;
10939;SDS011;5522;42.696;23.494;2022-12-24T14:24:54;33.58;;;22.80;;
10939;SDS011;5522;42.696;23.494;2022-12-24T14:27:23;33.83;;;22.20;;
10939;SDS011;5522;42.696;23.494;2022-12-24T14:29:56;36.10;;;22.17;;
10939;SDS011;5522;42.696;23.494;2022-12-24T14:32:32;30.25;;;21.10;;
10939;SDS011;5522;42.696;23.494;2022-12-24T14:35:07;34.80;;;23.55;;
10939;SDS011;5522;42.696;23.494;2022-12-24T14:37:43;42.37;;;28.37;;
10939;SDS011;5522;42.696;23.494;2022-12-24T14:40:13;38.08;;;24.85;;
10939;SDS011;5522;42.696;23.494;2022-12-24T14:42:45;42.78;;;26.48;;
10939;SDS011;5522;42.696;23.494;2022-12-24T14:45:22;48.83;;;28.83;;
10939;SDS011;5522;42.696;23.494;2022-12-24T14:47:58;50.47;;;31.35;;
10939;SDS011;5522;42.696;23.494;2022-12-24T14:50:36;60.85;;;35.50;;
10939;SDS011;5522;42.696;23.494;2022-12-24T14:53:20;95.22;;;59.53;;
10939;SDS011;5522;42.696;23.494;2022-12-24T14:55:53;78.18;;;46.63;;
10939;SDS011;5522;42.696;23.494;2022-12-24T14:58:24;81.75;;;45.00;;
10939;SDS011;5522;42.696;23.494;2022-12-24T15:00:53;352.27;;;149.90;;
10939;SDS011;5522;42.696;23.494;2022-12-24T15:03:22;192.07;;;87.25;;
10939;SDS011;5522;42.696;23.494;2022-12-24T15:05:52;84.05;;;44.47;;
10939;SDS011;5522;42.696;23.494;2022-12-24T15:08:24;58.75;;;36.75;;
10939;SDS011;5522;42.696;23.494;2022-12-24T15:11:01;54.10;;;29.63;;
10939;SDS011;5522;42.696;23.494;2022-12-24T15:13:34;58.35;;;31.77;;
10939;SDS011;5522;42.696;23.494;2022-12-24T15:16:03;42.33;;;22.98;;
10939;SDS011;5522;42.696;23.494;2022-12-24T15:18:33;35.83;;;22.27;;
10939;SDS011;5522;42.696;23.494;2022-12-24T15:21:04;38.58;;;21.30;;
10939;SDS011;5522;42.696;23.494;2022-12-24T15:23:43;34.63;;;22.15;;
10939;SDS011;5522;42.696;23.494;2022-12-24T15:26:22;42.20;;;23.90;;
10939;SDS011;5522;42.696;23.494;2022-12-24T15:28:52;38.10;;;22.33;;